^^
Station Historical Data
Daily Summary for June 7, 2017 Units:  Both    English   Metric
« Previous Day
Next Day »
Daily Weekly Monthly Yearly Custom
  High: Low: Average:
Temperature: 72.7 °F /  22.6 °C 42.8 °F /  6 °C 57.7 °F /  14.3 °C
Dew Point: 37.6 °F /  3.1 °C 3.7 °F /  -15.7 °C 22.6 °F /  -5.2 °C
Humidity: 69% 9% 33%
Wind Speed: 16.1mph /  25.9km/h - 1.3mph /  2.1km/h
Wind Gust: 16.1mph /  25.9km/h - -
Wind- - SSW
Pressure: 30.33 in /  1027 hPa 30.19 in /  1022.2 hPa -
Precipitation: 0.00 in /  0 mm    
Historical Graphs
 
 
Tabular Data for June 7, 2017
Time Temperature Dew Point Pressure Wind Wind Speed Wind Gust Humidity Rainfall Rate (Hourly) solar Conditions
00:00 52.5 °F /  11.4 °C 36.9 °F /  2.7 °C 30.24in /  1023.9hPa Calm     55% 0.00in /  0mm 0.0 W/m2
00:06 52.2 °F /  11.2 °C 36.9 °F /  2.7 °C 30.24in /  1023.9hPa Calm     56% 0.00in /  0mm 0.0 W/m2
00:12 51.8 °F /  11 °C 36.7 °F /  2.6 °C 30.24in /  1023.9hPa Calm     56% 0.00in /  0mm 0.0 W/m2
00:18 51.4 °F /  10.8 °C 36.7 °F /  2.6 °C 30.24in /  1023.9hPa Calm     57% 0.00in /  0mm 0.0 W/m2
00:24 51.1 °F /  10.6 °C 36.3 °F /  2.4 °C 30.25in /  1024.3hPa Calm     57% 0.00in /  0mm 0.0 W/m2
00:31 50.7 °F /  10.4 °C 36.5 °F /  2.5 °C 30.25in /  1024.3hPa Calm     58% 0.00in /  0mm 0.0 W/m2
00:37 50.4 °F /  10.2 °C 36.5 °F /  2.5 °C 30.25in /  1024.3hPa Calm     59% 0.00in /  0mm 0.0 W/m2
00:43 50.2 °F /  10.1 °C 36.9 °F /  2.7 °C 30.25in /  1024.3hPa Calm     60% 0.00in /  0mm 0.0 W/m2
00:49 49.8 °F /  9.9 °C 36.9 °F /  2.7 °C 30.25in /  1024.3hPa Calm     61% 0.00in /  0mm 0.0 W/m2
00:55 49.6 °F /  9.8 °C 37.2 °F /  2.9 °C 30.25in /  1024.3hPa Calm     62% 0.00in /  0mm 0.0 W/m2
01:01 49.5 °F /  9.7 °C 36.1 °F /  2.3 °C 30.25in /  1024.3hPa Calm     60% 0.00in /  0mm 0.0 W/m2
01:07 49.3 °F /  9.6 °C 36.9 °F /  2.7 °C 30.25in /  1024.3hPa Calm     62% 0.00in /  0mm 0.0 W/m2
01:14 48.9 °F /  9.4 °C 37.2 °F /  2.9 °C 30.24in /  1023.9hPa Calm     64% 0.00in /  0mm 0.0 W/m2
01:20 48.7 °F /  9.3 °C 37.6 °F /  3.1 °C 30.24in /  1023.9hPa Calm     65% 0.00in /  0mm 0.0 W/m2
01:26 48.4 °F /  9.1 °C 36.3 °F /  2.4 °C 30.24in /  1023.9hPa Calm     63% 0.00in /  0mm 0.0 W/m2
01:32 48.0 °F /  8.9 °C 36.0 °F /  2.2 °C 30.25in /  1024.3hPa Calm     63% 0.00in /  0mm 0.0 W/m2
01:38 47.8 °F /  8.8 °C 37.0 °F /  2.8 °C 30.24in /  1023.9hPa Calm     66% 0.00in /  0mm 0.0 W/m2
01:44 47.7 °F /  8.7 °C 36.5 °F /  2.5 °C 30.24in /  1023.9hPa Calm     65% 0.00in /  0mm 0.0 W/m2
01:51 47.5 °F /  8.6 °C 36.7 °F /  2.6 °C 30.24in /  1023.9hPa Calm     66% 0.00in /  0mm 0.0 W/m2
01:57 47.1 °F /  8.4 °C 36.7 °F /  2.6 °C 30.24in /  1023.9hPa Calm     67% 0.00in /  0mm 0.0 W/m2
02:03 47.1 °F /  8.4 °C 37.0 °F /  2.8 °C 30.23in /  1023.6hPa Calm     68% 0.00in /  0mm 0.0 W/m2
02:09 47.1 °F /  8.4 °C 37.4 °F /  3 °C 30.23in /  1023.6hPa Calm     69% 0.00in /  0mm 0.0 W/m2
02:15 46.9 °F /  8.3 °C 36.9 °F /  2.7 °C 30.23in /  1023.6hPa Calm     68% 0.00in /  0mm 0.0 W/m2
02:21 46.9 °F /  8.3 °C 36.9 °F /  2.7 °C 30.23in /  1023.6hPa Calm     68% 0.00in /  0mm 0.0 W/m2
02:27 46.9 °F /  8.3 °C 36.5 °F /  2.5 °C 30.22in /  1023.2hPa Calm   2.0mph /  3.2km/h 67% 0.00in /  0mm 0.0 W/m2
02:34 47.1 °F /  8.4 °C 36.3 °F /  2.4 °C 30.22in /  1023.2hPa Calm   1.0mph /  1.6km/h 66% 0.00in /  0mm 0.0 W/m2
02:40 47.3 °F /  8.5 °C 36.5 °F /  2.5 °C 30.22in /  1023.2hPa Calm   1.0mph /  1.6km/h 66% 0.00in /  0mm 0.0 W/m2
02:46 47.5 °F /  8.6 °C 36.7 °F /  2.6 °C 30.22in /  1023.2hPa Calm     66% 0.00in /  0mm 0.0 W/m2
02:52 47.3 °F /  8.5 °C 36.1 °F /  2.3 °C 30.23in /  1023.6hPa Calm     65% 0.00in /  0mm 0.0 W/m2
02:58 47.1 °F /  8.4 °C 36.3 °F /  2.4 °C 30.22in /  1023.2hPa Calm     66% 0.00in /  0mm 0.0 W/m2
03:04 46.9 °F /  8.3 °C 36.1 °F /  2.3 °C 30.22in /  1023.2hPa Calm     66% 0.00in /  0mm 0.0 W/m2
03:17 46.4 °F /  8 °C 36.0 °F /  2.2 °C 30.20in /  1022.6hPa Calm     67% 0.00in /  0mm 0.0 W/m2
03:23 46.0 °F /  7.8 °C 36.1 °F /  2.3 °C 30.20in /  1022.6hPa Calm     68% 0.00in /  0mm 0.0 W/m2
03:29 45.9 °F /  7.7 °C 36.0 °F /  2.2 °C 30.20in /  1022.6hPa Calm     68% 0.00in /  0mm 0.0 W/m2
03:35 45.3 °F /  7.4 °C 35.4 °F /  1.9 °C 30.19in /  1022.2hPa Calm     68% 0.00in /  0mm 0.0 W/m2
03:41 45.1 °F /  7.3 °C 35.6 °F /  2 °C 30.19in /  1022.2hPa Calm     69% 0.00in /  0mm 0.0 W/m2
03:47 45.3 °F /  7.4 °C 35.8 °F /  2.1 °C 30.19in /  1022.2hPa Calm   2.0mph /  3.2km/h 69% 0.00in /  0mm 0.0 W/m2
03:54 45.7 °F /  7.6 °C 35.8 °F /  2.1 °C 30.19in /  1022.2hPa Calm   2.0mph /  3.2km/h 68% 0.00in /  0mm 0.0 W/m2
04:00 45.9 °F /  7.7 °C 35.6 °F /  2 °C 30.19in /  1022.2hPa Calm   4.0mph /  6.4km/h 67% 0.00in /  0mm 0.0 W/m2
04:06 45.9 °F /  7.7 °C 35.6 °F /  2 °C 30.19in /  1022.2hPa Calm   3.0mph /  4.8km/h 67% 0.00in /  0mm 0.0 W/m2
04:12 45.7 °F /  7.6 °C 35.4 °F /  1.9 °C 30.19in /  1022.2hPa Calm   2.0mph /  3.2km/h 67% 0.00in /  0mm 0.0 W/m2
04:18 45.7 °F /  7.6 °C 35.4 °F /  1.9 °C 30.19in /  1022.2hPa Calm   5.0mph /  8km/h 67% 0.00in /  0mm 0.0 W/m2
04:24 45.7 °F /  7.6 °C 35.1 °F /  1.7 °C 30.19in /  1022.2hPa ENE 2.0mph /  3.2km/h 3.0mph /  4.8km/h 66% 0.00in /  0mm 0.0 W/m2
04:30 45.7 °F /  7.6 °C 35.1 °F /  1.7 °C 30.19in /  1022.2hPa Calm   3.0mph /  4.8km/h 66% 0.00in /  0mm 0.0 W/m2
04:36 45.3 °F /  7.4 °C 35.1 °F /  1.7 °C 30.20in /  1022.6hPa Calm   2.0mph /  3.2km/h 67% 0.00in /  0mm 0.0 W/m2
04:42 45.1 °F /  7.3 °C 34.9 °F /  1.6 °C 30.20in /  1022.6hPa Calm   1.0mph /  1.6km/h 67% 0.00in /  0mm 0.0 W/m2
04:49 45.0 °F /  7.2 °C 34.7 °F /  1.5 °C 30.19in /  1022.2hPa Calm   3.0mph /  4.8km/h 67% 0.00in /  0mm 0.0 W/m2
04:55 45.0 °F /  7.2 °C 35.1 °F /  1.7 °C 30.20in /  1022.6hPa Calm   3.0mph /  4.8km/h 68% 0.00in /  0mm 0.0 W/m2
05:01 44.8 °F /  7.1 °C 34.9 °F /  1.6 °C 30.20in /  1022.6hPa Calm   2.0mph /  3.2km/h 68% 0.00in /  0mm 0.0 W/m2
05:07 44.6 °F /  7 °C 34.3 °F /  1.3 °C 30.20in /  1022.6hPa ENE 0.9mph /  1.4km/h 2.0mph /  3.2km/h 67% 0.00in /  0mm 0.0 W/m2
05:13 44.4 °F /  6.9 °C 34.5 °F /  1.4 °C 30.20in /  1022.6hPa Calm   1.0mph /  1.6km/h 68% 0.00in /  0mm 0.0 W/m2
05:19 44.2 °F /  6.8 °C 34.3 °F /  1.3 °C 30.20in /  1022.6hPa Calm     68% 0.00in /  0mm 0.0 W/m2
05:25 44.2 °F /  6.8 °C 34.3 °F /  1.3 °C 30.20in /  1022.6hPa Calm   1.0mph /  1.6km/h 68% 0.00in /  0mm 0.0 W/m2
05:31 44.1 °F /  6.7 °C 34.2 °F /  1.2 °C 30.21in /  1022.9hPa Calm     68% 0.00in /  0mm 0.0 W/m2
05:37 44.1 °F /  6.7 °C 33.8 °F /  1 °C 30.21in /  1022.9hPa Calm   1.0mph /  1.6km/h 67% 0.00in /  0mm 0.0 W/m2
05:43 44.1 °F /  6.7 °C 33.8 °F /  1 °C 30.22in /  1023.2hPa Calm   1.0mph /  1.6km/h 67% 0.00in /  0mm 0.0 W/m2
05:49 43.9 °F /  6.6 °C 33.6 °F /  0.9 °C 30.22in /  1023.2hPa Calm     67% 0.00in /  0mm 0.0 W/m2
05:55 43.5 °F /  6.4 °C 33.3 °F /  0.7 °C 30.23in /  1023.6hPa Calm     67% 0.00in /  0mm 0.0 W/m2
06:02 43.2 °F /  6.2 °C 33.3 °F /  0.7 °C 30.23in /  1023.6hPa Calm     68% 0.00in /  0mm 0.0 W/m2
06:08 43.2 °F /  6.2 °C 33.3 °F /  0.7 °C 30.23in /  1023.6hPa Calm   1.0mph /  1.6km/h 68% 0.00in /  0mm 0.0 W/m2
06:14 43.0 °F /  6.1 °C 33.1 °F /  0.6 °C 30.23in /  1023.6hPa Calm   1.0mph /  1.6km/h 68% 0.00in /  0mm 0.0 W/m2
06:20 42.8 °F /  6 °C 32.9 °F /  0.5 °C 30.22in /  1023.2hPa Calm   1.0mph /  1.6km/h 68% 0.00in /  0mm 0.0 W/m2
06:26 42.8 °F /  6 °C 32.9 °F /  0.5 °C 30.22in /  1023.2hPa Calm   1.0mph /  1.6km/h 68% 0.00in /  0mm 0.0 W/m2
06:32 43.0 °F /  6.1 °C 32.7 °F /  0.4 °C 30.23in /  1023.6hPa Calm     67% 0.00in /  0mm 5.0 W/m2
06:38 43.2 °F /  6.2 °C 32.5 °F /  0.3 °C 30.23in /  1023.6hPa Calm     66% 0.00in /  0mm 7.0 W/m2
06:44 43.2 °F /  6.2 °C 32.2 °F /  0.1 °C 30.24in /  1023.9hPa ENE 0.9mph /  1.4km/h 2.0mph /  3.2km/h 65% 0.00in /  0mm 11.0 W/m2
06:51 43.2 °F /  6.2 °C 32.2 °F /  0.1 °C 30.23in /  1023.6hPa Calm   2.0mph /  3.2km/h 65% 0.00in /  0mm 12.0 W/m2
06:57 43.3 °F /  6.3 °C 32.4 °F /  0.2 °C 30.24in /  1023.9hPa Calm   4.0mph /  6.4km/h 65% 0.00in /  0mm 14.0 W/m2
07:03 43.5 °F /  6.4 °C 32.5 °F /  0.3 °C 30.24in /  1023.9hPa Calm   1.0mph /  1.6km/h 65% 0.00in /  0mm 16.0 W/m2
07:09 43.9 °F /  6.6 °C 32.5 °F /  0.3 °C 30.24in /  1023.9hPa Calm   2.0mph /  3.2km/h 64% 0.00in /  0mm 18.0 W/m2
07:15 44.2 °F /  6.8 °C 32.4 °F /  0.2 °C 30.24in /  1023.9hPa East 2.9mph /  4.7km/h 5.0mph /  8km/h 63% 0.00in /  0mm 19.0 W/m2
07:21 44.8 °F /  7.1 °C 32.5 °F /  0.3 °C 30.24in /  1023.9hPa Calm   3.0mph /  4.8km/h 62% 0.00in /  0mm 21.0 W/m2
07:27 45.1 °F /  7.3 °C 32.9 °F /  0.5 °C 30.25in /  1024.3hPa Calm   1.0mph /  1.6km/h 62% 0.00in /  0mm 21.0 W/m2
07:33 45.7 °F /  7.6 °C 33.4 °F /  0.8 °C 30.25in /  1024.3hPa Calm     62% 0.00in /  0mm 23.0 W/m2
07:40 46.2 °F /  7.9 °C 33.4 °F /  0.8 °C 30.25in /  1024.3hPa Calm   2.0mph /  3.2km/h 61% 0.00in /  0mm 25.0 W/m2
07:46 46.9 °F /  8.3 °C 33.4 °F /  0.8 °C 30.25in /  1024.3hPa Calm   2.0mph /  3.2km/h 59% 0.00in /  0mm 26.0 W/m2
07:52 47.8 °F /  8.8 °C 33.8 °F /  1 °C 30.25in /  1024.3hPa ENE 0.9mph /  1.4km/h 3.0mph /  4.8km/h 58% 0.00in /  0mm 26.0 W/m2
07:58 50.0 °F /  10 °C 34.5 °F /  1.4 °C 30.26in /  1024.6hPa NE 0.9mph /  1.4km/h 3.0mph /  4.8km/h 55% 0.00in /  0mm 267.0 W/m2
08:04 52.0 °F /  11.1 °C 35.4 °F /  1.9 °C 30.26in /  1024.6hPa Calm   3.0mph /  4.8km/h 53% 0.00in /  0mm 302.0 W/m2
08:10 53.8 °F /  12.1 °C 34.5 °F /  1.4 °C 30.26in /  1024.6hPa ENE 0.9mph /  1.4km/h 3.0mph /  4.8km/h 48% 0.00in /  0mm 329.0 W/m2
08:16 55.4 °F /  13 °C 33.8 °F /  1 °C 30.26in /  1024.6hPa Calm   3.0mph /  4.8km/h 44% 0.00in /  0mm 353.0 W/m2
08:23 57.2 °F /  14 °C 33.6 °F /  0.9 °C 30.26in /  1024.6hPa Calm   4.0mph /  6.4km/h 41% 0.00in /  0mm 374.0 W/m2
08:29 58.8 °F /  14.9 °C 32.5 °F /  0.3 °C 30.26in /  1024.6hPa Calm   2.0mph /  3.2km/h 37% 0.00in /  0mm 396.0 W/m2
08:35 60.1 °F /  15.6 °C 30.9 °F /  -0.6 °C 30.26in /  1024.6hPa Calm     33% 0.00in /  0mm 411.0 W/m2
08:41 61.3 °F /  16.3 °C 28.8 °F /  -1.8 °C 30.26in /  1024.6hPa Calm   1.0mph /  1.6km/h 29% 0.00in /  0mm 434.0 W/m2
08:47 62.4 °F /  16.9 °C 27.1 °F /  -2.7 °C 30.26in /  1024.6hPa Calm   1.0mph /  1.6km/h 26% 0.00in /  0mm 455.0 W/m2
08:53 63.7 °F /  17.6 °C 27.1 °F /  -2.7 °C 30.27in /  1024.9hPa Calm   1.0mph /  1.6km/h 25% 0.00in /  0mm 473.0 W/m2
08:59 64.6 °F /  18.1 °C 27.0 °F /  -2.8 °C 30.27in /  1024.9hPa Calm   2.0mph /  3.2km/h 24% 0.00in /  0mm 492.0 W/m2
09:06 65.3 °F /  18.5 °C 25.5 °F /  -3.6 °C 30.27in /  1024.9hPa Calm   2.0mph /  3.2km/h 22% 0.00in /  0mm 506.0 W/m2
09:12 65.8 °F /  18.8 °C 24.8 °F /  -4 °C 30.27in /  1024.9hPa Calm   1.0mph /  1.6km/h 21% 0.00in /  0mm 515.0 W/m2
09:18 65.5 °F /  18.6 °C 25.7 °F /  -3.5 °C 30.27in /  1024.9hPa Calm     22% 0.00in /  0mm 524.0 W/m2
09:24 66.0 °F /  18.9 °C 26.1 °F /  -3.3 °C 30.27in /  1024.9hPa Calm     22% 0.00in /  0mm 541.0 W/m2
09:30 66.7 °F /  19.3 °C 25.5 °F /  -3.6 °C 30.27in /  1024.9hPa Calm   2.0mph /  3.2km/h 21% 0.00in /  0mm 555.0 W/m2
09:36 66.7 °F /  19.3 °C 25.5 °F /  -3.6 °C 30.27in /  1024.9hPa Calm   2.0mph /  3.2km/h 21% 0.00in /  0mm 575.0 W/m2
09:42 67.3 °F /  19.6 °C 24.8 °F /  -4 °C 30.27in /  1024.9hPa Calm   5.0mph /  8km/h 20% 0.00in /  0mm 591.0 W/m2
09:48 67.8 °F /  19.9 °C 21.4 °F /  -5.9 °C 30.27in /  1024.9hPa NE 0.9mph /  1.4km/h 4.0mph /  6.4km/h 17% 0.00in /  0mm 599.0 W/m2
09:55 68.4 °F /  20.2 °C 21.9 °F /  -5.6 °C 30.27in /  1024.9hPa NNW 6.0mph /  9.7km/h 6.0mph /  9.7km/h 17% 0.00in /  0mm 617.0 W/m2
10:01 68.9 °F /  20.5 °C 20.8 °F /  -6.2 °C 30.26in /  1024.6hPa North 0.9mph /  1.4km/h 5.0mph /  8km/h 16% 0.00in /  0mm 624.0 W/m2
10:07 69.1 °F /  20.6 °C 21.0 °F /  -6.1 °C 30.26in /  1024.6hPa Calm   1.0mph /  1.6km/h 16% 0.00in /  0mm 629.0 W/m2
10:13 69.4 °F /  20.8 °C 21.2 °F /  -6 °C 30.26in /  1024.6hPa NNW 2.0mph /  3.2km/h 3.0mph /  4.8km/h 16% 0.00in /  0mm 642.0 W/m2
10:19 69.8 °F /  21 °C 20.1 °F /  -6.6 °C 30.26in /  1024.6hPa North 0.9mph /  1.4km/h 4.0mph /  6.4km/h 15% 0.00in /  0mm 650.0 W/m2
10:25 70.0 °F /  21.1 °C 20.1 °F /  -6.6 °C 30.26in /  1024.6hPa NNW 2.9mph /  4.7km/h 4.0mph /  6.4km/h 15% 0.00in /  0mm 661.0 W/m2
10:32 70.3 °F /  21.3 °C 13.3 °F /  -10.4 °C 30.26in /  1024.6hPa Calm   8.0mph /  12.9km/h 11% 0.00in /  0mm 671.0 W/m2
10:37 70.5 °F /  21.4 °C 13.5 °F /  -10.3 °C 30.26in /  1024.6hPa NW 0.9mph /  1.4km/h 4.0mph /  6.4km/h 11% 0.00in /  0mm 675.0 W/m2
10:44 70.9 °F /  21.6 °C 13.8 °F /  -10.1 °C 30.26in /  1024.6hPa Calm   4.0mph /  6.4km/h 11% 0.00in /  0mm 682.0 W/m2
10:50 71.1 °F /  21.7 °C 13.8 °F /  -10.1 °C 30.26in /  1024.6hPa Calm   6.0mph /  9.7km/h 11% 0.00in /  0mm 694.0 W/m2
10:56 71.2 °F /  21.8 °C 11.8 °F /  -11.2 °C 30.26in /  1024.6hPa Calm   4.0mph /  6.4km/h 10% 0.00in /  0mm 698.0 W/m2
11:02 71.8 °F /  22.1 °C 12.2 °F /  -11 °C 30.25in /  1024.3hPa WNW 2.0mph /  3.2km/h 6.0mph /  9.7km/h 10% 0.00in /  0mm 707.0 W/m2
11:08 71.4 °F /  21.9 °C 12.0 °F /  -11.1 °C 30.25in /  1024.3hPa WSW 2.0mph /  3.2km/h 5.0mph /  8km/h 10% 0.00in /  0mm 708.0 W/m2
11:14 71.8 °F /  22.1 °C 14.4 °F /  -9.8 °C 30.25in /  1024.3hPa WSW 4.0mph /  6.4km/h 4.0mph /  6.4km/h 11% 0.00in /  0mm 710.0 W/m2
11:20 71.8 °F /  22.1 °C 12.2 °F /  -11 °C 30.25in /  1024.3hPa West 0.9mph /  1.4km/h 14.0mph /  22.5km/h 10% 0.00in /  0mm 717.0 W/m2
11:26 71.4 °F /  21.9 °C 12.0 °F /  -11.1 °C 30.25in /  1024.3hPa West 6.0mph /  9.7km/h 7.0mph /  11.3km/h 10% 0.00in /  0mm 721.0 W/m2
11:33 71.4 °F /  21.9 °C 12.0 °F /  -11.1 °C 30.25in /  1024.3hPa WSW 2.9mph /  4.7km/h 5.0mph /  8km/h 10% 0.00in /  0mm 721.0 W/m2
11:39 71.4 °F /  21.9 °C 14.2 °F /  -9.9 °C 30.25in /  1024.3hPa West 2.9mph /  4.7km/h 8.0mph /  12.9km/h 11% 0.00in /  0mm 724.0 W/m2
11:45 71.2 °F /  21.8 °C 14.0 °F /  -10 °C 30.25in /  1024.3hPa WSW 4.9mph /  7.9km/h 7.0mph /  11.3km/h 11% 0.00in /  0mm 722.0 W/m2
11:51 71.4 °F /  21.9 °C 14.2 °F /  -9.9 °C 30.25in /  1024.3hPa Calm   5.0mph /  8km/h 11% 0.00in /  0mm 722.0 W/m2
11:57 71.8 °F /  22.1 °C 14.4 °F /  -9.8 °C 30.25in /  1024.3hPa West 2.9mph /  4.7km/h 5.0mph /  8km/h 11% 0.00in /  0mm 717.0 W/m2
12:03 71.8 °F /  22.1 °C 14.4 °F /  -9.8 °C 30.24in /  1023.9hPa West 2.9mph /  4.7km/h 7.0mph /  11.3km/h 11% 0.00in /  0mm 717.0 W/m2
12:09 71.6 °F /  22 °C 14.4 °F /  -9.8 °C 30.24in /  1023.9hPa West 6.0mph /  9.7km/h 11.0mph /  17.7km/h 11% 0.00in /  0mm 717.0 W/m2
12:16 71.4 °F /  21.9 °C 14.2 °F /  -9.9 °C 30.24in /  1023.9hPa SW 0.9mph /  1.4km/h 11.0mph /  17.7km/h 11% 0.00in /  0mm 714.0 W/m2
12:22 71.4 °F /  21.9 °C 14.2 °F /  -9.9 °C 30.24in /  1023.9hPa West 0.9mph /  1.4km/h 5.0mph /  8km/h 11% 0.00in /  0mm 707.0 W/m2
12:28 71.4 °F /  21.9 °C 14.2 °F /  -9.9 °C 30.24in /  1023.9hPa West 6.0mph /  9.7km/h 8.0mph /  12.9km/h 11% 0.00in /  0mm 705.0 W/m2
12:34 71.8 °F /  22.1 °C 14.4 °F /  -9.8 °C 30.24in /  1023.9hPa West 4.9mph /  7.9km/h 7.0mph /  11.3km/h 11% 0.00in /  0mm 698.0 W/m2
12:40 72.0 °F /  22.2 °C 14.5 °F /  -9.7 °C 30.23in /  1023.6hPa WSW 8.9mph /  14.3km/h 9.0mph /  14.5km/h 11% 0.00in /  0mm 694.0 W/m2
12:46 71.8 °F /  22.1 °C 14.4 °F /  -9.8 °C 30.23in /  1023.6hPa West 2.0mph /  3.2km/h 11.0mph /  17.7km/h 11% 0.00in /  0mm 686.0 W/m2
12:52 71.8 °F /  22.1 °C 14.4 °F /  -9.8 °C 30.23in /  1023.6hPa SSW 2.0mph /  3.2km/h 7.0mph /  11.3km/h 11% 0.00in /  0mm 679.0 W/m2
12:58 72.0 °F /  22.2 °C 12.4 °F /  -10.9 °C 30.23in /  1023.6hPa West 2.9mph /  4.7km/h 13.0mph /  20.9km/h 10% 0.00in /  0mm 673.0 W/m2
13:04 72.1 °F /  22.3 °C 14.7 °F /  -9.6 °C 30.23in /  1023.6hPa West 2.0mph /  3.2km/h 5.0mph /  8km/h 11% 0.00in /  0mm 664.0 W/m2
13:11 72.1 °F /  22.3 °C 12.6 °F /  -10.8 °C 30.22in /  1023.2hPa WSW 4.0mph /  6.4km/h 10.0mph /  16.1km/h 10% 0.00in /  0mm 657.0 W/m2
13:17 71.8 °F /  22.1 °C 14.4 °F /  -9.8 °C 30.22in /  1023.2hPa West 6.9mph /  11.1km/h 8.0mph /  12.9km/h 11% 0.00in /  0mm 649.0 W/m2
13:23 72.1 °F /  22.3 °C 12.6 °F /  -10.8 °C 30.22in /  1023.2hPa SW 0.9mph /  1.4km/h 4.0mph /  6.4km/h 10% 0.00in /  0mm 640.0 W/m2
13:29 72.1 °F /  22.3 °C 12.6 °F /  -10.8 °C 30.22in /  1023.2hPa SW 2.9mph /  4.7km/h 11.0mph /  17.7km/h 10% 0.00in /  0mm 629.0 W/m2
13:35 72.3 °F /  22.4 °C 12.7 °F /  -10.7 °C 30.22in /  1023.2hPa West 2.9mph /  4.7km/h 8.0mph /  12.9km/h 10% 0.00in /  0mm 619.0 W/m2
13:41 72.3 °F /  22.4 °C 12.7 °F /  -10.7 °C 30.22in /  1023.2hPa WNW 2.0mph /  3.2km/h 9.0mph /  14.5km/h 10% 0.00in /  0mm 608.0 W/m2
13:47 72.1 °F /  22.3 °C 12.6 °F /  -10.8 °C 30.21in /  1022.9hPa West 2.0mph /  3.2km/h 8.0mph /  12.9km/h 10% 0.00in /  0mm 594.0 W/m2
13:53 72.1 °F /  22.3 °C 10.2 °F /  -12.1 °C 30.21in /  1022.9hPa Calm   6.0mph /  9.7km/h 9% 0.00in /  0mm 582.0 W/m2
14:00 72.1 °F /  22.3 °C 12.6 °F /  -10.8 °C 30.21in /  1022.9hPa West 2.0mph /  3.2km/h 8.0mph /  12.9km/h 10% 0.00in /  0mm 568.0 W/m2
14:06 72.7 °F /  22.6 °C 10.6 °F /  -11.9 °C 30.22in /  1023.2hPa WSW 2.9mph /  4.7km/h 10.0mph /  16.1km/h 9% 0.00in /  0mm 554.0 W/m2
14:12 72.3 °F /  22.4 °C 12.7 °F /  -10.7 °C 30.22in /  1023.2hPa SW 2.9mph /  4.7km/h 8.0mph /  12.9km/h 10% 0.00in /  0mm 543.0 W/m2
14:18 72.3 °F /  22.4 °C 12.7 °F /  -10.7 °C 30.22in /  1023.2hPa Calm   3.0mph /  4.8km/h 10% 0.00in /  0mm 522.0 W/m2
14:24 72.1 °F /  22.3 °C 10.2 °F /  -12.1 °C 30.22in /  1023.2hPa West 2.9mph /  4.7km/h 5.0mph /  8km/h 9% 0.00in /  0mm 506.0 W/m2
14:30 72.1 °F /  22.3 °C 12.6 °F /  -10.8 °C 30.22in /  1023.2hPa WSW 4.0mph /  6.4km/h 10.0mph /  16.1km/h 10% 0.00in /  0mm 492.0 W/m2
14:36 72.3 °F /  22.4 °C 12.7 °F /  -10.7 °C 30.22in /  1023.2hPa WSW 2.9mph /  4.7km/h 10.0mph /  16.1km/h 10% 0.00in /  0mm 476.0 W/m2
14:42 72.1 °F /  22.3 °C 12.6 °F /  -10.8 °C 30.22in /  1023.2hPa SW 4.9mph /  7.9km/h 9.0mph /  14.5km/h 10% 0.00in /  0mm 459.0 W/m2
14:49 72.1 °F /  22.3 °C 12.6 °F /  -10.8 °C 30.22in /  1023.2hPa SW 2.9mph /  4.7km/h 5.0mph /  8km/h 10% 0.00in /  0mm 441.0 W/m2
14:55 72.0 °F /  22.2 °C 12.4 °F /  -10.9 °C 30.22in /  1023.2hPa West 2.9mph /  4.7km/h 7.0mph /  11.3km/h 10% 0.00in /  0mm 422.0 W/m2
15:01 71.6 °F /  22 °C 14.4 °F /  -9.8 °C 30.22in /  1023.2hPa WNW 2.0mph /  3.2km/h 10.0mph /  16.1km/h 11% 0.00in /  0mm 404.0 W/m2
15:07 71.4 °F /  21.9 °C 14.2 °F /  -9.9 °C 30.22in /  1023.2hPa NNE 0.9mph /  1.4km/h 3.0mph /  4.8km/h 11% 0.00in /  0mm 387.0 W/m2
15:13 71.1 °F /  21.7 °C 11.7 °F /  -11.3 °C 30.22in /  1023.2hPa West 4.9mph /  7.9km/h 9.0mph /  14.5km/h 10% 0.00in /  0mm 366.0 W/m2
15:19 70.9 °F /  21.6 °C 13.8 °F /  -10.1 °C 30.22in /  1023.2hPa Calm   2.0mph /  3.2km/h 11% 0.00in /  0mm 229.0 W/m2
15:25 70.7 °F /  21.5 °C 11.5 °F /  -11.4 °C 30.22in /  1023.2hPa WSW 6.9mph /  11.1km/h 8.0mph /  12.9km/h 10% 0.00in /  0mm 37.0 W/m2
15:32 70.3 °F /  21.3 °C 13.3 °F /  -10.4 °C 30.22in /  1023.2hPa WSW 0.9mph /  1.4km/h 5.0mph /  8km/h 11% 0.00in /  0mm 33.0 W/m2
15:38 70.2 °F /  21.2 °C 13.1 °F /  -10.5 °C 30.23in /  1023.6hPa WSW 0.9mph /  1.4km/h 5.0mph /  8km/h 11% 0.00in /  0mm 33.0 W/m2
15:44 69.8 °F /  21 °C 14.9 °F /  -9.5 °C 30.23in /  1023.6hPa WSW 0.9mph /  1.4km/h 5.0mph /  8km/h 12% 0.00in /  0mm 32.0 W/m2
15:50 69.4 °F /  20.8 °C 14.5 °F /  -9.7 °C 30.23in /  1023.6hPa West 2.0mph /  3.2km/h 8.0mph /  12.9km/h 12% 0.00in /  0mm 30.0 W/m2
15:56 69.3 °F /  20.7 °C 16.3 °F /  -8.7 °C 30.23in /  1023.6hPa West 2.9mph /  4.7km/h 3.0mph /  4.8km/h 13% 0.00in /  0mm 26.0 W/m2
16:02 69.1 °F /  20.6 °C 16.2 °F /  -8.8 °C 30.23in /  1023.6hPa West 2.0mph /  3.2km/h 6.0mph /  9.7km/h 13% 0.00in /  0mm 21.0 W/m2
16:09 68.5 °F /  20.3 °C 15.8 °F /  -9 °C 30.23in /  1023.6hPa SSW 2.0mph /  3.2km/h 5.0mph /  8km/h 13% 0.00in /  0mm 18.0 W/m2
16:14 68.4 °F /  20.2 °C 13.8 °F /  -10.1 °C 30.23in /  1023.6hPa WSW 2.9mph /  4.7km/h 8.0mph /  12.9km/h 12% 0.00in /  0mm 16.0 W/m2
16:21 68.2 °F /  20.1 °C 13.6 °F /  -10.2 °C 30.24in /  1023.9hPa West 0.9mph /  1.4km/h 7.0mph /  11.3km/h 12% 0.00in /  0mm 16.0 W/m2
16:27 67.8 °F /  19.9 °C 13.3 °F /  -10.4 °C 30.24in /  1023.9hPa WSW 4.0mph /  6.4km/h 8.0mph /  12.9km/h 12% 0.00in /  0mm 14.0 W/m2
16:33 67.5 °F /  19.7 °C 11.1 °F /  -11.6 °C 30.25in /  1024.3hPa Calm   5.0mph /  8km/h 11% 0.00in /  0mm 14.0 W/m2
16:39 67.3 °F /  19.6 °C 10.9 °F /  -11.7 °C 30.25in /  1024.3hPa SSW 2.0mph /  3.2km/h 5.0mph /  8km/h 11% 0.00in /  0mm 12.0 W/m2
16:45 66.7 °F /  19.3 °C 10.6 °F /  -11.9 °C 30.25in /  1024.3hPa SW 0.9mph /  1.4km/h 7.0mph /  11.3km/h 11% 0.00in /  0mm 12.0 W/m2
16:51 66.6 °F /  19.2 °C 10.4 °F /  -12 °C 30.25in /  1024.3hPa WSW 0.9mph /  1.4km/h 3.0mph /  4.8km/h 11% 0.00in /  0mm 11.0 W/m2
16:57 66.0 °F /  18.9 °C 5.5 °F /  -14.7 °C 30.25in /  1024.3hPa West 2.0mph /  3.2km/h 5.0mph /  8km/h 9% 0.00in /  0mm 9.0 W/m2
17:04 65.8 °F /  18.8 °C 5.4 °F /  -14.8 °C 30.25in /  1024.3hPa Calm   1.0mph /  1.6km/h 9% 0.00in /  0mm 7.0 W/m2
17:10 65.5 °F /  18.6 °C 5.2 °F /  -14.9 °C 30.25in /  1024.3hPa Calm     9% 0.00in /  0mm 5.0 W/m2
17:16 64.8 °F /  18.2 °C 4.6 °F /  -15.2 °C 30.25in /  1024.3hPa Calm     9% 0.00in /  0mm 0.0 W/m2
17:22 64.0 °F /  17.8 °C 4.1 °F /  -15.5 °C 30.26in /  1024.6hPa Calm   2.0mph /  3.2km/h 9% 0.00in /  0mm 0.0 W/m2
17:28 63.5 °F /  17.5 °C 5.9 °F /  -14.5 °C 30.26in /  1024.6hPa Calm     10% 0.00in /  0mm 0.0 W/m2
17:34 63.0 °F /  17.2 °C 5.5 °F /  -14.7 °C 30.26in /  1024.6hPa Calm     10% 0.00in /  0mm 0.0 W/m2
17:40 62.2 °F /  16.8 °C 9.0 °F /  -12.8 °C 30.26in /  1024.6hPa Calm     12% 0.00in /  0mm 0.0 W/m2
17:47 61.5 °F /  16.4 °C 8.4 °F /  -13.1 °C 30.27in /  1024.9hPa Calm     12% 0.00in /  0mm 0.0 W/m2
17:53 60.4 °F /  15.8 °C 7.5 °F /  -13.6 °C 30.27in /  1024.9hPa Calm     12% 0.00in /  0mm 0.0 W/m2
17:59 59.5 °F /  15.3 °C 5.0 °F /  -15 °C 30.27in /  1024.9hPa Calm     11% 0.00in /  0mm 0.0 W/m2
18:05 58.8 °F /  14.9 °C 6.3 °F /  -14.3 °C 30.28in /  1025.3hPa Calm     12% 0.00in /  0mm 0.0 W/m2
18:11 58.1 °F /  14.5 °C 3.7 °F /  -15.7 °C 30.28in /  1025.3hPa Calm     11% 0.00in /  0mm 0.0 W/m2
18:17 57.6 °F /  14.2 °C 5.4 °F /  -14.8 °C 30.28in /  1025.3hPa Calm     12% 0.00in /  0mm 0.0 W/m2
18:23 57.4 °F /  14.1 °C 7.0 °F /  -13.9 °C 30.28in /  1025.3hPa Calm     13% 0.00in /  0mm 0.0 W/m2
18:30 56.7 °F /  13.7 °C 8.1 °F /  -13.3 °C 30.28in /  1025.3hPa Calm     14% 0.00in /  0mm 0.0 W/m2
18:35 55.9 °F /  13.3 °C 9.0 °F /  -12.8 °C 30.28in /  1025.3hPa Calm   1.0mph /  1.6km/h 15% 0.00in /  0mm 0.0 W/m2
18:42 55.2 °F /  12.9 °C 8.4 °F /  -13.1 °C 30.28in /  1025.3hPa Calm     15% 0.00in /  0mm 0.0 W/m2
18:48 55.0 °F /  12.8 °C 8.2 °F /  -13.2 °C 30.28in /  1025.3hPa Calm     15% 0.00in /  0mm 0.0 W/m2
18:54 54.5 °F /  12.5 °C 9.1 °F /  -12.7 °C 30.29in /  1025.6hPa Calm     16% 0.00in /  0mm 0.0 W/m2
19:00 54.1 °F /  12.3 °C 7.5 °F /  -13.6 °C 30.29in /  1025.6hPa Calm     15% 0.00in /  0mm 0.0 W/m2
19:06 54.0 °F /  12.2 °C 8.8 °F /  -12.9 °C 30.29in /  1025.6hPa Calm     16% 0.00in /  0mm 0.0 W/m2
19:12 54.1 °F /  12.3 °C 14.0 °F /  -10 °C 30.30in /  1026hPa SSW 2.0mph /  3.2km/h 12.0mph /  19.3km/h 20% 0.00in /  0mm 0.0 W/m2
19:18 55.8 °F /  13.2 °C 17.4 °F /  -8.1 °C 30.30in /  1026hPa SSE 0.9mph /  1.4km/h 12.0mph /  19.3km/h 22% 0.00in /  0mm 0.0 W/m2
19:24 56.8 °F /  13.8 °C 19.4 °F /  -7 °C 30.30in /  1026hPa SE 2.0mph /  3.2km/h 10.0mph /  16.1km/h 23% 0.00in /  0mm 0.0 W/m2
19:28 57.2 °F /  14 °C 20.7 °F /  -6.3 °C 30.30in /  1026hPa Calm   5.0mph /  8km/h 24% 0.00in /  0mm 0.0 W/m2
19:34 57.6 °F /  14.2 °C 21.0 °F /  -6.1 °C 30.30in /  1026hPa SE 6.0mph /  9.7km/h 13.0mph /  20.9km/h 24% 0.00in /  0mm 0.0 W/m2
19:40 57.6 °F /  14.2 °C 21.9 °F /  -5.6 °C 30.30in /  1026hPa Calm   7.0mph /  11.3km/h 25% 0.00in /  0mm 0.0 W/m2
19:46 57.4 °F /  14.1 °C 21.9 °F /  -5.6 °C 30.30in /  1026hPa South 16.1mph /  25.9km/h 16.1mph /  25.9km/h 25% 0.00in /  0mm 0.0 W/m2
19:52 57.4 °F /  14.1 °C 21.9 °F /  -5.6 °C 30.31in /  1026.3hPa SSE 0.9mph /  1.4km/h 9.0mph /  14.5km/h 25% 0.00in /  0mm 0.0 W/m2
19:58 57.2 °F /  14 °C 21.7 °F /  -5.7 °C 30.31in /  1026.3hPa WSW 2.9mph /  4.7km/h 11.0mph /  17.7km/h 25% 0.00in /  0mm 0.0 W/m2
20:04 57.0 °F /  13.9 °C 21.6 °F /  -5.8 °C 30.31in /  1026.3hPa SE 12.1mph /  19.5km/h 12.1mph /  19.5km/h 25% 0.00in /  0mm 0.0 W/m2
20:10 56.8 °F /  13.8 °C 21.4 °F /  -5.9 °C 30.31in /  1026.3hPa East 4.0mph /  6.4km/h 12.0mph /  19.3km/h 25% 0.00in /  0mm 0.0 W/m2
20:16 56.8 °F /  13.8 °C 21.4 °F /  -5.9 °C 30.31in /  1026.3hPa South 0.9mph /  1.4km/h 11.0mph /  17.7km/h 25% 0.00in /  0mm 0.0 W/m2
20:22 56.7 °F /  13.7 °C 22.1 °F /  -5.5 °C 30.31in /  1026.3hPa Calm   3.0mph /  4.8km/h 26% 0.00in /  0mm 0.0 W/m2
20:28 56.7 °F /  13.7 °C 22.1 °F /  -5.5 °C 30.31in /  1026.3hPa South 2.9mph /  4.7km/h 12.0mph /  19.3km/h 26% 0.00in /  0mm 0.0 W/m2
20:34 56.5 °F /  13.6 °C 21.9 °F /  -5.6 °C 30.32in /  1026.6hPa WSW 2.0mph /  3.2km/h 10.0mph /  16.1km/h 26% 0.00in /  0mm 0.0 W/m2
20:40 56.7 °F /  13.7 °C 22.1 °F /  -5.5 °C 30.32in /  1026.6hPa ESE 4.0mph /  6.4km/h 13.0mph /  20.9km/h 26% 0.00in /  0mm 0.0 W/m2
20:46 56.5 °F /  13.6 °C 21.9 °F /  -5.6 °C 30.32in /  1026.6hPa South 6.0mph /  9.7km/h 12.0mph /  19.3km/h 26% 0.00in /  0mm 0.0 W/m2
20:52 56.5 °F /  13.6 °C 21.9 °F /  -5.6 °C 30.32in /  1026.6hPa SSE 6.0mph /  9.7km/h 13.0mph /  20.9km/h 26% 0.00in /  0mm 0.0 W/m2
20:58 56.5 °F /  13.6 °C 21.9 °F /  -5.6 °C 30.32in /  1026.6hPa SSE 4.9mph /  7.9km/h 10.0mph /  16.1km/h 26% 0.00in /  0mm 0.0 W/m2
21:04 56.1 °F /  13.4 °C 22.6 °F /  -5.2 °C 30.32in /  1026.6hPa Calm   10.0mph /  16.1km/h 27% 0.00in /  0mm 0.0 W/m2
21:10 56.1 °F /  13.4 °C 22.6 °F /  -5.2 °C 30.32in /  1026.6hPa SE 4.9mph /  7.9km/h 12.0mph /  19.3km/h 27% 0.00in /  0mm 0.0 W/m2
21:16 55.9 °F /  13.3 °C 22.5 °F /  -5.3 °C 30.32in /  1026.6hPa SSE 2.0mph /  3.2km/h 9.0mph /  14.5km/h 27% 0.00in /  0mm 0.0 W/m2
21:22 55.8 °F /  13.2 °C 22.3 °F /  -5.4 °C 30.33in /  1027hPa SE 2.0mph /  3.2km/h 10.0mph /  16.1km/h 27% 0.00in /  0mm 0.0 W/m2
21:28 55.8 °F /  13.2 °C 21.4 °F /  -5.9 °C 30.33in /  1027hPa Calm   12.0mph /  19.3km/h 26% 0.00in /  0mm 0.0 W/m2
21:34 55.6 °F /  13.1 °C 21.2 °F /  -6 °C 30.33in /  1027hPa SE 6.0mph /  9.7km/h 7.0mph /  11.3km/h 26% 0.00in /  0mm 0.0 W/m2
21:40 55.6 °F /  13.1 °C 21.2 °F /  -6 °C 30.33in /  1027hPa SSE 4.9mph /  7.9km/h 8.0mph /  12.9km/h 26% 0.00in /  0mm 0.0 W/m2
21:46 55.2 °F /  12.9 °C 20.8 °F /  -6.2 °C 30.33in /  1027hPa Calm   7.0mph /  11.3km/h 26% 0.00in /  0mm 0.0 W/m2
21:52 55.2 °F /  12.9 °C 20.8 °F /  -6.2 °C 30.33in /  1027hPa East 4.9mph /  7.9km/h 8.0mph /  12.9km/h 26% 0.00in /  0mm 0.0 W/m2
21:58 55.2 °F /  12.9 °C 19.9 °F /  -6.7 °C 30.32in /  1026.6hPa SSE 4.9mph /  7.9km/h 8.0mph /  12.9km/h 25% 0.00in /  0mm 0.0 W/m2
22:04 55.2 °F /  12.9 °C 18.1 °F /  -7.7 °C 30.33in /  1027hPa SE 6.9mph /  11.1km/h 13.0mph /  20.9km/h 23% 0.00in /  0mm 0.0 W/m2
22:10 55.6 °F /  13.1 °C 18.3 °F /  -7.6 °C 30.33in /  1027hPa SE 2.9mph /  4.7km/h 14.0mph /  22.5km/h 23% 0.00in /  0mm 0.0 W/m2
22:16 55.6 °F /  13.1 °C 18.3 °F /  -7.6 °C 30.33in /  1027hPa SE 0.9mph /  1.4km/h 12.0mph /  19.3km/h 23% 0.00in /  0mm 0.0 W/m2
22:22 55.4 °F /  13 °C 18.1 °F /  -7.7 °C 30.33in /  1027hPa SSE 8.9mph /  14.3km/h 10.0mph /  16.1km/h 23% 0.00in /  0mm 0.0 W/m2
22:28 55.2 °F /  12.9 °C 19.0 °F /  -7.2 °C 30.33in /  1027hPa SE 4.0mph /  6.4km/h 9.0mph /  14.5km/h 24% 0.00in /  0mm 0.0 W/m2
22:34 55.2 °F /  12.9 °C 19.0 °F /  -7.2 °C 30.33in /  1027hPa Calm   5.0mph /  8km/h 24% 0.00in /  0mm 0.0 W/m2
22:40 55.0 °F /  12.8 °C 18.9 °F /  -7.3 °C 30.33in /  1027hPa SSW 0.9mph /  1.4km/h 7.0mph /  11.3km/h 24% 0.00in /  0mm 0.0 W/m2
22:46 54.9 °F /  12.7 °C 18.7 °F /  -7.4 °C 30.33in /  1027hPa SE 2.9mph /  4.7km/h 7.0mph /  11.3km/h 24% 0.00in /  0mm 0.0 W/m2
22:52 54.7 °F /  12.6 °C 18.5 °F /  -7.5 °C 30.33in /  1027hPa Calm     24% 0.00in /  0mm 0.0 W/m2
22:58 54.5 °F /  12.5 °C 18.5 °F /  -7.5 °C 30.32in /  1026.6hPa Calm     24% 0.00in /  0mm 0.0 W/m2
23:04 54.0 °F /  12.2 °C 18.9 °F /  -7.3 °C 30.31in /  1026.3hPa Calm     25% 0.00in /  0mm 0.0 W/m2
23:10 53.2 °F /  11.8 °C 19.2 °F /  -7.1 °C 30.31in /  1026.3hPa Calm     26% 0.00in /  0mm 0.0 W/m2
23:16 52.3 °F /  11.3 °C 19.4 °F /  -7 °C 30.31in /  1026.3hPa Calm     27% 0.00in /  0mm 0.0 W/m2
23:22 51.4 °F /  10.8 °C 19.4 °F /  -7 °C 30.31in /  1026.3hPa Calm     28% 0.00in /  0mm 0.0 W/m2
23:29 50.5 °F /  10.3 °C 18.7 °F /  -7.4 °C 30.32in /  1026.6hPa Calm     28% 0.00in /  0mm 0.0 W/m2
23:35 49.5 °F /  9.7 °C 18.5 °F /  -7.5 °C 30.32in /  1026.6hPa Calm     29% 0.00in /  0mm 0.0 W/m2
23:41 48.6 °F /  9.2 °C 17.8 °F /  -7.9 °C 30.32in /  1026.6hPa Calm     29% 0.00in /  0mm 0.0 W/m2
23:47 47.7 °F /  8.7 °C 17.8 °F /  -7.9 °C 30.32in /  1026.6hPa Calm     30% 0.00in /  0mm 0.0 W/m2
23:53 46.9 °F /  8.3 °C 17.8 °F /  -7.9 °C 30.31in /  1026.3hPa Calm   1.0mph /  1.6km/h 31% 0.00in /  0mm 0.0 W/m2
23:59 46.6 °F /  8.1 °C 18.3 °F /  -7.6 °C 30.31in /  1026.3hPa Calm     32% 0.00in /  0mm 0.0 W/m2
Olympia, Windhoek, Namibia
Compliments of Weather Underground - 3 mb